Cecil, Wisconsin
Current Conditions -  °F | °C
As of 3:35 AM on Sunday 26 Oct 2014 (Local Time) from KEZS Reporting Station
Clear Clear  
Wind Chill: 43°   Ceiling: Unl
Heat Index: 43°   Visibility: 10mi
Dew Point: 28°   Wind: 0mph
Humidity: 55%   Direction: NA
Pressure: 29.96"   Gusts: NA
Location:  44.81°N, 88.45°W
Report Text: KEZS 260835Z AUTO 00000KT 10SM CLR 06/M02 A2996 RMK AO2 T00591025
Loading
Personal Weather Stations






























Interactive Weather Map New forecast layout! Learn more

10-Day Weather Forecast

Advertisements
Track Severe Weather on mobile